Terminal Aerodrome Forecast
Issued by NWS

Home | Current Version | Previous Version | Text Only | Print | Product List | Glossary On
Versions: 1 2 3 4 5 6 7 8 9 10 11 12 13 14 15 16
000
FTAK31 PAJN 251700
TAFAGY
TAF
PAGY 251733Z 2518/2618 20007KT P6SM VCSH SCT015 BKN035 OVC050
      TEMPO 2518/2520 4SM -SHRA BR BKN015 OVC030
     FM252000 21007KT P6SM -RA SCT015 OVC035
     FM252200 20012KT P6SM -RA SCT030 OVC040
     FM260400 21005KT P6SM -RA SCT020 OVC030
      AMD LTD TO CLD VIS AND WIND=

USA.gov is the U.S. government's official web portal to all federal, state and local government web resources and services.